Time;durP1;ratioP1;P1;durP2;ratioP2;P2;SDS_P1;SDS_P2;PMS_P1;PMS_P2;Temp;Humidity;BMP_temperature;BMP_pressure;BME280_temperature;BME280_humidity;BME280_pressure;Samples;Min_cycle;Max_cycle;Signal;HPM_P1;HPM_P2
2021/10/10 00:00:05;;;;;;;;;;;20.30;60.80;;;;;;5031600;28;1279;-70
2021/10/10 00:02:30;;;;;;;;;;;20.30;60.80;;;;;;5032319;28;1907;-70
2021/10/10 00:04:56;;;;;;;;;;;20.30;60.80;;;;;;5031519;28;1294;-70
2021/10/10 00:07:21;;;;;;;;;;;20.30;60.90;;;;;;5032588;28;1271;-70
2021/10/10 00:09:46;;;;;;;;;;;20.30;60.90;;;;;;5031993;28;1381;-70
2021/10/10 00:12:12;;;;;;;;;;;20.30;60.90;;;;;;5031588;28;1276;-70
2021/10/10 00:14:37;;;;;;;;;;;20.30;60.90;;;;;;5032199;28;1407;-70
2021/10/10 00:17:03;;;;;;;;;;;20.30;60.90;;;;;;5031848;28;1135;-70
2021/10/10 00:19:28;;;;;;;;;;;20.30;60.90;;;;;;5032444;28;1140;-70
2021/10/10 00:21:53;;;;;;;;;;;20.30;61.00;;;;;;5032189;28;1894;-70
2021/10/10 00:24:19;;;;;;;;;;;20.30;61.00;;;;;;5031639;28;1286;-69
2021/10/10 00:26:44;;;;;;;;;;;20.30;61.00;;;;;;5032081;28;1522;-70
2021/10/10 00:29:10;;;;;;;;;;;20.30;61.00;;;;;;5031963;28;1080;-70
2021/10/10 00:31:36;;;;;;;;;;;20.30;61.00;;;;;;5031915;28;1472;-70
2021/10/10 00:34:01;;;;;;;;;;;20.30;61.10;;;;;;5031546;28;1264;-70
2021/10/10 00:36:26;;;;;;;;;;;20.30;61.10;;;;;;5031963;28;1426;-70
2021/10/10 00:38:52;;;;;;;;;;;20.30;61.10;;;;;;5032428;28;1112;-70
2021/10/10 00:41:17;;;;;;;;;;;20.30;61.10;;;;;;5031140;28;1902;-71
2021/10/10 00:43:43;;;;;;;;;;;20.30;61.10;;;;;;5031616;28;1315;-70
2021/10/10 00:46:08;;;;;;;;;;;20.30;61.10;;;;;;5031715;28;1169;-70
2021/10/10 00:48:33;;;;;;;;;;;20.30;61.10;;;;;;5031926;28;1056;-70
2021/10/10 00:50:59;;;;;;;;;;;20.30;61.10;;;;;;5030897;28;1379;-70
2021/10/10 00:53:24;;;;;;;;;;;20.30;61.20;;;;;;5032054;28;1123;-70
2021/10/10 00:55:50;;;;;;;;;;;20.30;61.20;;;;;;5030789;28;1260;-70
2021/10/10 00:58:16;;;;;;;;;;;20.30;61.20;;;;;;5031587;28;1124;-70
2021/10/10 01:00:41;;;;;;;;;;;20.30;61.20;;;;;;5030850;28;1368;-70
2021/10/10 01:03:07;;;;;;;;;;;20.30;61.20;;;;;;5031792;28;1910;-70
2021/10/10 01:05:32;;;;;;;;;;;20.30;61.20;;;;;;5031779;28;1262;-70
2021/10/10 01:07:58;;;;;;;;;;;20.30;61.30;;;;;;5034028;28;1309;-69
2021/10/10 01:10:23;;;;;;;;;;;20.30;61.30;;;;;;5034826;28;1285;-69
2021/10/10 01:12:49;;;;;;;;;;;20.30;62.10;;;;;;5035027;28;1290;-70
2021/10/10 01:15:14;;;;;;;;;;;20.30;61.30;;;;;;5035136;28;1059;-70
2021/10/10 01:17:39;;;;;;;;;;;20.30;61.30;;;;;;5035278;28;1195;-70
2021/10/10 01:20:06;;;;;;;;;;;20.30;61.40;;;;;;5034287;28;1315;-70
2021/10/10 01:22:31;;;;;;;;;;;20.30;61.40;;;;;;5035019;28;1902;-70
2021/10/10 01:24:57;;;;;;;;;;;20.30;61.40;;;;;;5034620;28;1136;-70
2021/10/10 01:27:22;;;;;;;;;;;20.30;61.40;;;;;;5034707;28;1308;-70
2021/10/10 01:29:48;;;;;;;;;;;20.30;61.40;;;;;;5034839;28;1315;-70
2021/10/10 01:32:13;;;;;;;;;;;20.30;61.40;;;;;;5033452;28;1308;-70
2021/10/10 01:34:47;;;;;;;;;;;20.30;61.50;;;;;;5034770;28;1493;-70
2021/10/10 01:37:13;;;;;;;;;;;20.30;61.50;;;;;;5034496;28;1276;-70
2021/10/10 01:39:38;;;;;;;;;;;20.30;61.50;;;;;;5035169;28;1170;-70
2021/10/10 01:42:04;;;;;;;;;;;20.30;61.50;;;;;;5034394;28;1914;-70
2021/10/10 01:44:29;;;;;;;;;;;20.30;61.50;;;;;;5033404;28;1216;-70
2021/10/10 01:46:55;;;;;;;;;;;20.30;61.50;;;;;;5033454;28;1085;-70
2021/10/10 01:49:20;;;;;;;;;;;20.30;61.60;;;;;;5034739;28;1068;-70
2021/10/10 01:51:45;;;;;;;;;;;20.30;61.60;;;;;;5034151;28;1295;-69
2021/10/10 01:54:11;;;;;;;;;;;20.30;61.60;;;;;;5034604;28;1293;-70
2021/10/10 01:56:36;;;;;;;;;;;20.30;61.60;;;;;;5034365;28;1283;-70
2021/10/10 01:59:02;;;;;;;;;;;20.30;61.60;;;;;;5034238;28;1329;-70
2021/10/10 02:01:27;;;;;;;;;;;20.30;61.60;;;;;;5032561;28;1931;-70
2021/10/10 02:03:53;;;;;;;;;;;20.30;61.70;;;;;;5034184;28;1280;-70
2021/10/10 02:06:18;;;;;;;;;;;20.30;61.70;;;;;;5034291;28;1307;-70
2021/10/10 02:08:43;;;;;;;;;;;20.30;61.70;;;;;;5034082;28;1127;-70
2021/10/10 02:11:09;;;;;;;;;;;20.30;61.70;;;;;;5033315;28;1281;-70
2021/10/10 02:13:34;;;;;;;;;;;20.30;61.70;;;;;;5033628;28;1306;-70
2021/10/10 02:16:00;;;;;;;;;;;20.30;61.70;;;;;;5034055;28;1072;-70
2021/10/10 02:18:25;;;;;;;;;;;20.30;62.50;;;;;;5032542;28;1361;-70
2021/10/10 02:20:51;;;;;;;;;;;20.30;61.70;;;;;;5033586;28;1367;-70
2021/10/10 02:23:16;;;;;;;;;;;20.30;61.70;;;;;;5032667;28;1906;-70
2021/10/10 02:25:42;;;;;;;;;;;20.30;61.80;;;;;;5033971;28;1319;-70
2021/10/10 02:28:07;;;;;;;;;;;20.30;61.70;;;;;;5033822;28;1404;-69
2021/10/10 02:30:32;;;;;;;;;;;20.30;61.70;;;;;;5032735;28;1373;-70
2021/10/10 02:32:58;;;;;;;;;;;20.30;61.70;;;;;;5034253;28;1362;-70
2021/10/10 02:35:23;;;;;;;;;;;20.30;61.70;;;;;;5033802;28;1517;-70
2021/10/10 02:37:49;;;;;;;;;;;20.30;61.70;;;;;;5033471;28;1207;-70
2021/10/10 02:40:14;;;;;;;;;;;20.30;61.70;;;;;;5032331;28;1716;-70
2021/10/10 02:42:40;;;;;;;;;;;20.30;61.70;;;;;;5033690;28;1902;-70
2021/10/10 02:45:05;;;;;;;;;;;20.30;61.70;;;;;;5032072;28;1263;-70
2021/10/10 02:47:31;;;;;;;;;;;20.30;61.70;;;;;;5032120;28;1402;-70
2021/10/10 02:49:56;;;;;;;;;;;20.30;61.60;;;;;;5031627;28;1328;-70
2021/10/10 02:52:23;;;;;;;;;;;20.30;61.60;;;;;;5033317;28;1251;-70
2021/10/10 02:54:49;;;;;;;;;;;20.30;61.60;;;;;;5032655;28;1319;-70
2021/10/10 02:57:14;;;;;;;;;;;20.30;61.60;;;;;;5032204;28;1344;-70
2021/10/10 02:59:40;;;;;;;;;;;20.30;61.60;;;;;;5033555;28;1374;-70
2021/10/10 03:02:05;;;;;;;;;;;20.30;61.60;;;;;;5032534;28;1977;-70
2021/10/10 03:04:31;;;;;;;;;;;20.30;61.60;;;;;;5032764;28;1095;-69
2021/10/10 03:06:56;;;;;;;;;;;20.30;61.60;;;;;;5031833;28;1475;-70
2021/10/10 03:09:22;;;;;;;;;;;20.40;61.70;;;;;;5031877;28;1052;-70
2021/10/10 03:11:47;;;;;;;;;;;20.30;61.60;;;;;;5032578;28;1328;-70
2021/10/10 03:14:12;;;;;;;;;;;20.40;61.70;;;;;;5031839;28;1264;-70
2021/10/10 03:16:38;;;;;;;;;;;20.40;61.70;;;;;;5032568;28;1292;-70
2021/10/10 03:19:03;;;;;;;;;;;20.40;61.70;;;;;;5032644;28;1440;-69
2021/10/10 03:21:29;;;;;;;;;;;20.40;61.70;;;;;;5032192;28;1914;-70
2021/10/10 03:23:54;;;;;;;;;;;20.40;61.70;;;;;;5032625;28;1273;-70
2021/10/10 03:26:20;;;;;;;;;;;20.40;61.70;;;;;;5032693;28;1251;-70
2021/10/10 03:28:45;;;;;;;;;;;20.40;61.70;;;;;;5032811;28;1194;-70
2021/10/10 03:31:10;;;;;;;;;;;20.40;61.70;;;;;;5031462;28;1213;-70
2021/10/10 03:33:36;;;;;;;;;;;20.40;61.70;;;;;;5032387;28;1349;-70
2021/10/10 03:36:01;;;;;;;;;;;20.40;61.70;;;;;;5032725;28;1271;-70
2021/10/10 03:38:27;;;;;;;;;;;20.40;61.70;;;;;;5032774;28;1374;-70
2021/10/10 03:40:52;;;;;;;;;;;20.40;61.70;;;;;;5031545;28;1298;-70
2021/10/10 03:43:17;;;;;;;;;;;20.40;61.70;;;;;;5032647;28;1894;-70
2021/10/10 03:45:43;;;;;;;;;;;20.40;61.70;;;;;;5032597;28;1316;-69
2021/10/10 03:48:08;;;;;;;;;;;20.40;61.70;;;;;;5032673;28;1072;-70
2021/10/10 03:50:34;;;;;;;;;;;20.40;61.70;;;;;;5032120;28;1383;-70
2021/10/10 03:52:59;;;;;;;;;;;20.30;62.50;;;;;;5032535;28;1267;-70
2021/10/10 03:57:50;;;;;;;;;;;20.40;61.80;;;;;;5032775;28;1264;-70
2021/10/10 04:00:15;;;;;;;;;;;20.40;61.80;;;;;;5031734;28;1343;-70
2021/10/10 04:02:41;;;;;;;;;;;20.40;61.80;;;;;;5032178;28;2423;-70
2021/10/10 04:05:15;;;;;;;;;;;20.40;61.80;;;;;;5031198;28;1380;-70
2021/10/10 04:07:41;;;;;;;;;;;20.40;61.80;;;;;;5032205;28;1112;-70
2021/10/10 04:10:06;;;;;;;;;;;20.40;61.80;;;;;;5031396;28;1349;-70
2021/10/10 04:12:32;;;;;;;;;;;20.40;61.80;;;;;;5031008;28;1290;-69
2021/10/10 04:14:57;;;;;;;;;;;20.40;61.80;;;;;;5032416;28;1351;-69
2021/10/10 04:17:22;;;;;;;;;;;20.40;61.80;;;;;;5032206;28;1322;-70
2021/10/10 04:19:48;;;;;;;;;;;20.40;61.90;;;;;;5032222;28;1325;-70
2021/10/10 04:22:13;;;;;;;;;;;20.40;61.90;;;;;;5031791;28;1957;-70
2021/10/10 04:24:39;;;;;;;;;;;20.40;61.90;;;;;;5031775;28;1343;-70
2021/10/10 04:27:04;;;;;;;;;;;20.40;61.90;;;;;;5032442;28;1253;-70
2021/10/10 04:29:29;;;;;;;;;;;20.40;61.90;;;;;;5031807;28;1091;-70
2021/10/10 04:31:55;;;;;;;;;;;20.40;61.90;;;;;;5031537;28;1384;-70
2021/10/10 04:34:20;;;;;;;;;;;20.40;62.00;;;;;;5032097;28;1063;-70
2021/10/10 04:36:46;;;;;;;;;;;20.40;62.00;;;;;;5032320;28;1273;-70
2021/10/10 04:39:11;;;;;;;;;;;20.40;62.10;;;;;;5031857;28;1351;-70
2021/10/10 04:41:37;;;;;;;;;;;20.40;62.00;;;;;;5033406;28;1969;-70
2021/10/10 04:44:02;;;;;;;;;;;20.40;62.00;;;;;;5035459;28;1084;-70
2021/10/10 04:46:27;;;;;;;;;;;20.40;61.90;;;;;;5034475;28;1293;-70
2021/10/10 04:48:53;;;;;;;;;;;20.40;61.80;;;;;;5036103;28;1351;-69
2021/10/10 04:51:18;;;;;;;;;;;20.40;61.70;;;;;;5033933;28;1373;-70
2021/10/10 04:53:44;;;;;;;;;;;20.50;61.80;;;;;;5035512;28;1166;-70
2021/10/10 04:56:09;;;;;;;;;;;20.50;61.60;;;;;;5035467;28;1060;-69
2021/10/10 04:58:35;;;;;;;;;;;20.60;61.60;;;;;;5035644;28;1220;-70
2021/10/10 05:01:00;;;;;;;;;;;20.60;61.50;;;;;;5034994;28;1973;-70
2021/10/10 05:03:25;;;;;;;;;;;20.60;61.40;;;;;;5035581;28;1144;-70
2021/10/10 05:05:51;;;;;;;;;;;20.60;61.20;;;;;;5034204;28;1281;-70
2021/10/10 05:08:16;;;;;;;;;;;20.70;61.20;;;;;;5035263;28;1258;-70
2021/10/10 05:10:42;;;;;;;;;;;20.70;61.00;;;;;;5034223;28;1346;-70
2021/10/10 05:13:07;;;;;;;;;;;20.70;61.10;;;;;;5035706;28;1167;-70
2021/10/10 05:15:33;;;;;;;;;;;20.70;60.90;;;;;;5035187;28;1248;-70
2021/10/10 05:17:58;;;;;;;;;;;20.70;60.80;;;;;;5035202;28;1361;-70
2021/10/10 05:20:23;;;;;;;;;;;20.70;60.70;;;;;;5034399;28;1275;-70
2021/10/10 05:22:49;;;;;;;;;;;20.80;60.70;;;;;;5034959;28;1963;-70
2021/10/10 05:25:15;;;;;;;;;;;20.80;60.70;;;;;;5034702;28;1317;-70
2021/10/10 05:27:41;;;;;;;;;;;20.80;60.60;;;;;;5035065;28;1315;-70
2021/10/10 05:30:06;;;;;;;;;;;20.80;60.50;;;;;;5034653;28;1288;-70
2021/10/10 05:32:32;;;;;;;;;;;20.80;60.50;;;;;;5034736;28;1296;-70
2021/10/10 05:34:57;;;;;;;;;;;20.90;60.50;;;;;;5034848;28;1251;-70
2021/10/10 05:37:23;;;;;;;;;;;20.90;60.40;;;;;;5034952;28;1274;-70
2021/10/10 05:39:48;;;;;;;;;;;20.90;60.40;;;;;;5033313;28;1258;-70
2021/10/10 05:42:14;;;;;;;;;;;20.90;60.40;;;;;;5033883;28;1973;-70
2021/10/10 05:44:39;;;;;;;;;;;20.90;60.40;;;;;;5033495;28;1536;-70
2021/10/10 05:47:05;;;;;;;;;;;20.90;60.30;;;;;;5033399;28;1323;-70
2021/10/10 05:49:30;;;;;;;;;;;20.90;60.30;;;;;;5034837;28;1341;-70
2021/10/10 05:51:58;;;;;;;;;;;20.90;60.30;;;;;;5033887;28;1375;-70
2021/10/10 05:54:24;;;;;;;;;;;20.90;60.20;;;;;;5032294;28;1376;-70
2021/10/10 05:56:49;;;;;;;;;;;20.90;60.20;;;;;;5033196;28;1363;-70
2021/10/10 05:59:16;;;;;;;;;;;21.00;60.20;;;;;;5033578;28;1340;-70
2021/10/10 06:01:42;;;;;;;;;;;21.00;60.20;;;;;;5033622;28;1899;-70
2021/10/10 06:04:07;;;;;;;;;;;21.00;60.20;;;;;;5032795;28;1096;-70
2021/10/10 06:06:32;;;;;;;;;;;21.00;60.20;;;;;;5033815;28;1377;-70
2021/10/10 06:08:58;;;;;;;;;;;21.00;60.10;;;;;;5033168;28;1363;-70
2021/10/10 06:11:23;;;;;;;;;;;21.00;60.10;;;;;;5033235;28;1291;-70
2021/10/10 06:13:49;;;;;;;;;;;21.10;60.00;;;;;;5033080;28;1360;-70
2021/10/10 06:16:14;;;;;;;;;;;21.10;59.90;;;;;;5034022;28;1099;-70
2021/10/10 06:18:40;;;;;;;;;;;21.20;59.90;;;;;;5033144;28;1309;-70
2021/10/10 06:21:05;;;;;;;;;;;21.30;59.80;;;;;;5032351;28;2000;-70
2021/10/10 06:23:30;;;;;;;;;;;21.40;59.60;;;;;;5033669;28;1135;-70
2021/10/10 06:25:56;;;;;;;;;;;21.60;59.50;;;;;;5033638;28;1355;-70
2021/10/10 06:28:21;;;;;;;;;;;21.60;59.20;;;;;;5032782;28;1163;-70
2021/10/10 06:30:47;;;;;;;;;;;21.80;59.10;;;;;;5032220;28;1365;-70
2021/10/10 06:33:12;;;;;;;;;;;21.90;58.80;;;;;;5033939;28;1436;-70
2021/10/10 06:35:37;;;;;;;;;;;21.90;58.60;;;;;;5033437;28;1280;-70
2021/10/10 06:38:03;;;;;;;;;;;22.00;58.30;;;;;;5033844;28;1279;-70
2021/10/10 06:40:28;;;;;;;;;;;22.10;58.20;;;;;;5031853;28;1412;-70
2021/10/10 06:42:54;;;;;;;;;;;22.10;58.00;;;;;;5029038;28;1958;-70
2021/10/10 06:45:19;;;;;;;;;;;22.20;58.40;;;;;;5028813;28;1349;-70
2021/10/10 06:47:45;;;;;;;;;;;22.20;57.70;;;;;;5025000;28;1560;-70
2021/10/10 06:50:10;;;;;;;;;;;22.30;57.70;;;;;;5024979;28;1416;-70
2021/10/10 06:52:35;;;;;;;;;;;22.30;57.80;;;;;;5023915;28;1264;-70
2021/10/10 06:55:01;;;;;;;;;;;22.30;57.80;;;;;;5022393;28;1364;-70
2021/10/10 06:57:29;;;;;;;;;;;22.40;57.90;;;;;;5023748;28;1293;-70
2021/10/10 06:59:58;;;;;;;;;;;22.40;57.90;;;;;;5024125;28;1292;-70
2021/10/10 07:02:23;;;;;;;;;;;22.40;58.00;;;;;;5024831;28;2017;-70
2021/10/10 07:04:49;;;;;;;;;;;22.40;58.10;;;;;;5029050;28;1394;-70
2021/10/10 07:07:14;;;;;;;;;;;22.40;58.10;;;;;;5033084;28;1257;-70
2021/10/10 07:09:39;;;;;;;;;;;22.40;58.20;;;;;;5033010;28;1294;-70
2021/10/10 07:12:05;;;;;;;;;;;22.50;58.20;;;;;;5032094;28;1276;-70
2021/10/10 07:14:31;;;;;;;;;;;22.50;58.30;;;;;;5030852;28;1321;-70
2021/10/10 07:16:57;;;;;;;;;;;22.50;58.40;;;;;;5032435;28;1409;-70
2021/10/10 07:19:25;;;;;;;;;;;22.50;58.40;;;;;;5033086;28;1096;-70
2021/10/10 07:22:14;;;;;;;;;;;22.50;58.50;;;;;;5032048;28;1910;-70
2021/10/10 07:27:20;;;;;;;;;;;22.40;58.60;;;;;;5026072;28;1366;-70
2021/10/10 07:29:45;;;;;;;;;;;22.40;58.70;;;;;;5030617;28;1352;-70
2021/10/10 07:32:11;;;;;;;;;;;22.40;59.10;;;;;;5031247;28;1350;-70
2021/10/10 07:34:36;;;;;;;;;;;22.40;59.00;;;;;;5031139;28;1319;-70
2021/10/10 07:37:02;;;;;;;;;;;22.40;58.90;;;;;;5031393;28;938;-70
2021/10/10 07:39:27;;;;;;;;;;;22.40;59.10;;;;;;5032074;28;1338;-70
2021/10/10 07:41:54;;;;;;;;;;;22.40;59.20;;;;;;5030240;28;1902;-70
2021/10/10 07:44:19;;;;;;;;;;;22.40;59.30;;;;;;5032390;28;1204;-70
2021/10/10 07:46:54;;;;;;;;;;;22.40;59.30;;;;;;5031000;28;1301;-70
2021/10/10 07:49:20;;;;;;;;;;;22.40;59.30;;;;;;5032113;28;1237;-70
2021/10/10 07:51:45;;;;;;;;;;;22.40;59.40;;;;;;5031343;28;1378;-70
2021/10/10 07:54:10;;;;;;;;;;;22.40;59.50;;;;;;5032320;28;1252;-70
2021/10/10 07:56:36;;;;;;;;;;;22.40;59.60;;;;;;5032391;28;1232;-70
2021/10/10 07:59:01;;;;;;;;;;;22.40;59.70;;;;;;5032420;28;1076;-70
2021/10/10 08:01:27;;;;;;;;;;;22.40;59.70;;;;;;5031481;28;1914;-70
2021/10/10 08:03:52;;;;;;;;;;;22.40;59.80;;;;;;5032194;28;1230;-70
2021/10/10 08:06:18;;;;;;;;;;;22.40;59.80;;;;;;5031916;28;1378;-70
2021/10/10 08:08:43;;;;;;;;;;;22.40;59.90;;;;;;5032747;28;1320;-70
2021/10/10 08:11:09;;;;;;;;;;;22.40;60.00;;;;;;5031616;28;1347;-70
2021/10/10 08:13:34;;;;;;;;;;;22.40;60.10;;;;;;5030961;28;1455;-70
2021/10/10 08:16:00;;;;;;;;;;;22.40;60.10;;;;;;5032635;28;1105;-70
2021/10/10 08:18:25;;;;;;;;;;;22.40;60.10;;;;;;5036113;28;1370;-69
2021/10/10 08:20:51;;;;;;;;;;;22.40;60.10;;;;;;5035586;28;1376;-70
2021/10/10 08:23:16;;;;;;;;;;;22.40;60.10;;;;;;5036516;28;1910;-70
2021/10/10 08:25:41;;;;;;;;;;;22.40;60.20;;;;;;5035848;28;1262;-70
2021/10/10 08:28:07;;;;;;;;;;;22.40;60.20;;;;;;5035488;28;1275;-70
2021/10/10 08:30:32;;;;;;;;;;;22.40;60.20;;;;;;5035253;28;1299;-70
2021/10/10 08:32:58;;;;;;;;;;;22.40;60.20;;;;;;5036051;28;1357;-70
2021/10/10 08:35:23;;;;;;;;;;;22.40;60.40;;;;;;5035610;28;1099;-69
2021/10/10 08:37:49;;;;;;;;;;;22.40;60.40;;;;;;5035442;28;1465;-70
2021/10/10 08:40:14;;;;;;;;;;;22.40;60.40;;;;;;5034050;28;1369;-70
2021/10/10 08:42:42;;;;;;;;;;;22.40;60.50;;;;;;5034362;28;2013;-70
2021/10/10 08:45:09;;;;;;;;;;;22.40;60.50;;;;;;5034425;28;1368;-70
2021/10/10 08:47:41;;;;;;;;;;;22.40;60.50;;;;;;5033964;28;1001;-70
2021/10/10 08:50:09;;;;;;;;;;;22.40;60.50;;;;;;5033250;28;1372;-70
2021/10/10 08:52:34;;;;;;;;;;;22.40;60.60;;;;;;5034319;28;1276;-69
2021/10/10 08:55:00;;;;;;;;;;;22.30;60.50;;;;;;5033907;28;1183;-70
2021/10/10 08:57:25;;;;;;;;;;;22.30;60.50;;;;;;5033925;28;1284;-70
2021/10/10 08:59:55;;;;;;;;;;;22.30;60.60;;;;;;5033691;28;1643;-70
2021/10/10 09:02:24;;;;;;;;;;;22.30;60.60;;;;;;5033757;28;1903;-70
2021/10/10 09:04:49;;;;;;;;;;;22.30;60.70;;;;;;5033819;28;1291;-70
2021/10/10 09:07:14;;;;;;;;;;;22.30;60.70;;;;;;5035566;28;1347;-70
2021/10/10 09:09:41;;;;;;;;;;;22.30;60.70;;;;;;5034216;28;1254;-70
2021/10/10 09:12:10;;;;;;;;;;;22.30;60.80;;;;;;5035068;28;1370;-70
2021/10/10 09:14:48;;;;;;;;;;;22.30;60.90;;;;;;5034633;28;1267;-69
2021/10/10 09:17:17;;;;;;;;;;;22.30;60.80;;;;;;5034031;28;1284;-70
2021/10/10 09:19:53;;;;;;;;;;;22.30;60.90;;;;;;5033689;28;1360;-70
2021/10/10 09:22:18;;;;;;;;;;;22.30;61.00;;;;;;5032908;28;1977;-69
2021/10/10 09:24:44;;;;;;;;;;;22.30;61.10;;;;;;5033326;28;1328;-69
2021/10/10 09:27:10;;;;;;;;;;;22.30;61.20;;;;;;5032445;28;1893;-69
2021/10/10 09:29:36;;;;;;;;;;;22.30;61.20;;;;;;5026578;28;2084;-69
2021/10/10 09:32:22;;;;;;;;;;;22.30;61.20;;;;;;5030468;28;1214;-69
2021/10/10 09:34:49;;;;;;;;;;;22.30;61.20;;;;;;5032395;28;1252;-69
2021/10/10 09:37:31;;;;;;;;;;;22.30;61.30;;;;;;5033538;28;1131;-69
2021/10/10 09:42:59;;;;;;;;;;;22.20;61.30;;;;;;4990351;28;1957;-69
2021/10/10 09:45:26;;;;;;;;;;;22.20;61.40;;;;;;5033010;28;1482;-69
2021/10/10 09:48:01;;;;;;;;;;;22.20;61.40;;;;;;5034643;28;1068;-70
2021/10/10 09:50:27;;;;;;;;;;;22.20;61.40;;;;;;5032581;28;1385;-69
2021/10/10 09:53:00;;;;;;;;;;;22.20;61.50;;;;;;5034587;28;1357;-70
2021/10/10 09:55:26;;;;;;;;;;;22.20;61.50;;;;;;5034114;28;1290;-69
2021/10/10 09:57:51;;;;;;;;;;;22.20;61.60;;;;;;5033259;28;1281;-69
2021/10/10 10:00:17;;;;;;;;;;;22.30;61.70;;;;;;5033579;28;1296;-69
2021/10/10 10:02:43;;;;;;;;;;;22.20;61.60;;;;;;5032656;28;1902;-69
2021/10/10 10:05:08;;;;;;;;;;;22.30;61.90;;;;;;5034366;28;1307;-69
2021/10/10 10:07:34;;;;;;;;;;;22.20;61.80;;;;;;5033045;28;1269;-69
2021/10/10 10:09:59;;;;;;;;;;;22.30;62.00;;;;;;5032495;28;1245;-69
2021/10/10 10:12:30;;;;;;;;;;;22.30;61.90;;;;;;5032412;28;1284;-69
2021/10/10 10:14:56;;;;;;;;;;;22.20;61.80;;;;;;5033215;28;1303;-69
2021/10/10 10:17:23;;;;;;;;;;;22.20;61.80;;;;;;5034260;28;1319;-69
2021/10/10 10:19:48;;;;;;;;;;;22.20;62.00;;;;;;5032280;28;1545;-69
2021/10/10 10:22:13;;;;;;;;;;;22.30;62.00;;;;;;5032699;28;1894;-69
2021/10/10 10:24:40;;;;;;;;;;;22.20;62.00;;;;;;5011034;28;1272;-69
2021/10/10 10:27:06;;;;;;;;;;;22.20;62.20;;;;;;5024887;28;1307;-69
2021/10/10 10:29:31;;;;;;;;;;;22.30;62.10;;;;;;5032738;28;1304;-69
2021/10/10 10:31:57;;;;;;;;;;;22.30;62.10;;;;;;5031631;28;1356;-69
2021/10/10 10:34:29;;;;;;;;;;;22.30;62.10;;;;;;5032720;28;1310;-69
2021/10/10 10:36:58;;;;;;;;;;;22.30;62.10;;;;;;5032485;28;1351;-68
2021/10/10 10:39:33;;;;;;;;;;;22.30;62.10;;;;;;5033658;28;1326;-69
2021/10/10 10:41:59;;;;;;;;;;;22.30;62.10;;;;;;5031942;28;1906;-69
2021/10/10 10:44:37;;;;;;;;;;;22.30;62.10;;;;;;5031636;28;1286;-68
2021/10/10 10:47:04;;;;;;;;;;;22.30;62.20;;;;;;5033252;28;1428;-69
2021/10/10 10:49:44;;;;;;;;;;;22.30;62.30;;;;;;5033593;28;1131;-69
2021/10/10 10:52:33;;;;;;;;;;;22.30;62.30;;;;;;5032509;28;1301;-68
2021/10/10 10:55:04;;;;;;;;;;;22.30;62.30;;;;;;5027607;28;1360;-68
2021/10/10 10:57:36;;;;;;;;;;;22.30;62.30;;;;;;5032951;28;1279;-69
2021/10/10 11:00:06;;;;;;;;;;;22.30;62.30;;;;;;5032582;28;1383;-69
2021/10/10 11:02:47;;;;;;;;;;;22.30;62.30;;;;;;5032185;28;1910;-69
2021/10/10 11:05:12;;;;;;;;;;;22.30;62.30;;;;;;5032937;28;1371;-69
2021/10/10 11:07:47;;;;;;;;;;;22.30;62.40;;;;;;5033228;28;1303;-70
2021/10/10 11:10:15;;;;;;;;;;;22.30;62.40;;;;;;5031230;28;1292;-69
2021/10/10 11:12:40;;;;;;;;;;;22.30;62.40;;;;;;5031637;28;1320;-69
2021/10/10 11:15:10;;;;;;;;;;;22.30;62.90;;;;;;5031512;28;1269;-70
2021/10/10 11:17:36;;;;;;;;;;;22.30;62.60;;;;;;5031613;28;1052;-70
2021/10/10 11:20:02;;;;;;;;;;;22.30;62.70;;;;;;5030726;28;1448;-69
2021/10/10 11:22:27;;;;;;;;;;;22.30;63.00;;;;;;5032538;28;1968;-69
2021/10/10 11:24:53;;;;;;;;;;;22.30;63.00;;;;;;5031393;28;1296;-69
2021/10/10 11:27:20;;;;;;;;;;;22.30;62.80;;;;;;5031515;28;1402;-70
2021/10/10 11:29:49;;;;;;;;;;;22.30;62.80;;;;;;5031235;28;1326;-70
2021/10/10 11:32:14;;;;;;;;;;;22.30;62.90;;;;;;5031225;28;1321;-69
2021/10/10 11:34:40;;;;;;;;;;;22.30;62.90;;;;;;5032543;28;2037;-69
2021/10/10 11:37:10;;;;;;;;;;;22.30;62.90;;;;;;5032506;28;1044;-69
2021/10/10 11:39:36;;;;;;;;;;;22.30;62.90;;;;;;5032278;28;1267;-69
2021/10/10 11:42:01;;;;;;;;;;;22.30;62.90;;;;;;5031293;28;1894;-69
2021/10/10 11:44:34;;;;;;;;;;;22.30;63.00;;;;;;5033214;28;1331;-69
2021/10/10 11:47:00;;;;;;;;;;;22.30;63.80;;;;;;5030785;28;1283;-70
2021/10/10 11:49:36;;;;;;;;;;;22.30;63.10;;;;;;5031667;28;1289;-69
2021/10/10 11:52:05;;;;;;;;;;;22.30;63.10;;;;;;5031013;28;1359;-68
2021/10/10 11:54:38;;;;;;;;;;;22.30;63.20;;;;;;5031792;28;1330;-69
2021/10/10 11:57:04;;;;;;;;;;;22.30;63.10;;;;;;5031204;28;1216;-69
2021/10/10 11:59:29;;;;;;;;;;;22.30;63.20;;;;;;5031120;28;1271;-69
2021/10/10 12:01:55;;;;;;;;;;;22.30;63.20;;;;;;5019002;28;1914;-68
2021/10/10 12:04:20;;;;;;;;;;;22.30;63.30;;;;;;5021914;28;1279;-70
2021/10/10 12:06:47;;;;;;;;;;;22.30;61.90;;;;;;5030910;28;1275;-69
2021/10/10 12:09:12;;;;;;;;;;;22.20;57.20;;;;;;5032429;28;1285;-69
2021/10/10 12:11:39;;;;;;;;;;;22.20;55.00;;;;;;5031202;28;1314;-69
2021/10/10 12:14:04;;;;;;;;;;;22.10;54.10;;;;;;5010909;28;1563;-69
2021/10/10 12:16:42;;;;;;;;;;;22.10;53.70;;;;;;5024966;28;1344;-69
2021/10/10 12:19:08;;;;;;;;;;;22.00;52.00;;;;;;5021742;28;1474;-69
2021/10/10 12:21:36;;;;;;;;;;;22.00;51.30;;;;;;5023633;28;1902;-69
2021/10/10 12:24:02;;;;;;;;;;;22.00;50.40;;;;;;5026498;28;1324;-69
2021/10/10 12:26:29;;;;;;;;;;;21.90;50.80;;;;;;5031167;28;1340;-69
2021/10/10 12:28:54;;;;;;;;;;;21.90;50.30;;;;;;5032271;28;1103;-69
2021/10/10 12:31:23;;;;;;;;;;;21.90;50.90;;;;;;5030137;28;1277;-69
2021/10/10 12:33:49;;;;;;;;;;;21.80;49.10;;;;;;5028576;28;1330;-69
2021/10/10 12:36:15;;;;;;;;;;;21.80;49.10;;;;;;5021649;28;1489;-68
2021/10/10 12:38:41;;;;;;;;;;;21.70;48.50;;;;;;5014600;28;1057;-69
2021/10/10 12:41:22;;;;;;;;;;;21.70;47.50;;;;;;5000921;28;1271;-68
2021/10/10 12:43:49;;;;;;;;;;;21.70;47.30;;;;;;5032051;28;1364;-68
2021/10/10 12:46:14;;;;;;;;;;;21.60;49.30;;;;;;5030160;28;1313;-69
2021/10/10 12:48:40;;;;;;;;;;;21.60;50.00;;;;;;5030056;28;1319;-69
2021/10/10 12:51:13;;;;;;;;;;;21.60;48.60;;;;;;5031789;28;1358;-69
2021/10/10 12:53:38;;;;;;;;;;;21.60;48.30;;;;;;5029944;28;1346;-68
2021/10/10 12:56:10;;;;;;;;;;;21.50;46.60;;;;;;5031381;28;1064;-70
2021/10/10 12:58:45;;;;;;;;;;;21.50;46.30;;;;;;5031960;28;1315;-69
2021/10/10 13:01:10;;;;;;;;;;;21.50;44.10;;;;;;5029282;28;1436;-69
2021/10/10 13:03:36;;;;;;;;;;;21.40;43.30;;;;;;5034823;28;1957;-69
2021/10/10 13:06:01;;;;;;;;;;;21.40;44.40;;;;;;5034367;28;1065;-69
2021/10/10 13:08:27;;;;;;;;;;;21.30;42.60;;;;;;5013671;28;1338;-69
2021/10/10 13:10:52;;;;;;;;;;;21.30;43.00;;;;;;5026482;28;1338;-69
2021/10/10 13:13:18;;;;;;;;;;;21.30;43.50;;;;;;5035517;28;1248;-69
2021/10/10 13:15:43;;;;;;;;;;;21.30;43.20;;;;;;5034385;28;1229;-69
2021/10/10 13:18:09;;;;;;;;;;;21.20;42.60;;;;;;5035106;28;1248;-69
2021/10/10 13:20:34;;;;;;;;;;;21.20;41.90;;;;;;5033558;28;1321;-69
2021/10/10 13:22:59;;;;;;;;;;;21.20;42.40;;;;;;5034735;28;1894;-69
2021/10/10 13:25:25;;;;;;;;;;;21.10;42.60;;;;;;5033116;28;1357;-71
2021/10/10 13:27:50;;;;;;;;;;;21.10;41.70;;;;;;5033864;28;1310;-71
2021/10/10 13:30:16;;;;;;;;;;;21.10;42.40;;;;;;5034299;28;1274;-71
2021/10/10 13:32:41;;;;;;;;;;;21.10;41.70;;;;;;5028863;28;2108;-70
2021/10/10 13:35:07;;;;;;;;;;;21.10;42.80;;;;;;5032585;28;1889;-71
2021/10/10 13:37:32;;;;;;;;;;;21.00;43.70;;;;;;5031641;28;1321;-71
2021/10/10 13:39:59;;;;;;;;;;;21.00;44.70;;;;;;5029417;28;1308;-71
2021/10/10 13:42:24;;;;;;;;;;;21.00;45.10;;;;;;5027322;28;1899;-71
2021/10/10 13:44:50;;;;;;;;;;;21.00;45.60;;;;;;5025964;28;1312;-71
2021/10/10 13:47:15;;;;;;;;;;;21.00;42.90;;;;;;5028052;28;1465;-71
2021/10/10 13:49:44;;;;;;;;;;;21.00;44.30;;;;;;5027236;28;1356;-71
2021/10/10 13:52:11;;;;;;;;;;;21.00;43.90;;;;;;5028600;28;1299;-69
2021/10/10 13:54:37;;;;;;;;;;;21.00;42.70;;;;;;5023700;28;1377;-71
2021/10/10 13:57:02;;;;;;;;;;;20.90;42.10;;;;;;5027029;28;1315;-70
2021/10/10 13:59:28;;;;;;;;;;;20.90;41.60;;;;;;5026317;28;1264;-71
2021/10/10 14:01:53;;;;;;;;;;;20.90;42.70;;;;;;5026514;28;1963;-68
2021/10/10 14:04:18;;;;;;;;;;;20.90;42.40;;;;;;5032719;28;1329;-72
2021/10/10 14:06:44;;;;;;;;;;;20.90;43.30;;;;;;5032407;28;1314;-69
2021/10/10 14:09:09;;;;;;;;;;;20.90;42.80;;;;;;5034110;28;1665;-70
2021/10/10 14:11:35;;;;;;;;;;;20.90;43.40;;;;;;5032610;28;1595;-69
2021/10/10 14:14:00;;;;;;;;;;;20.80;42.70;;;;;;5032249;28;1278;-69
2021/10/10 14:16:26;;;;;;;;;;;20.80;41.60;;;;;;5032705;28;1399;-68
2021/10/10 14:18:52;;;;;;;;;;;20.80;43.60;;;;;;5033004;28;1475;-69
2021/10/10 14:21:17;;;;;;;;;;;20.80;41.10;;;;;;5032359;28;1453;-69
2021/10/10 14:23:43;;;;;;;;;;;20.80;40.20;;;;;;5033768;28;1922;-69
2021/10/10 14:26:08;;;;;;;;;;;20.80;43.50;;;;;;5033974;28;1218;-69
2021/10/10 14:28:33;;;;;;;;;;;20.80;42.60;;;;;;5032831;28;1256;-70
2021/10/10 14:30:59;;;;;;;;;;;20.70;42.80;;;;;;5033465;28;1250;-69
2021/10/10 14:33:24;;;;;;;;;;;20.70;41.10;;;;;;5032884;28;1329;-69